Flight Track Log - Related Links

Times and Time Zones

All times are in EST time to prevent confusion due to time zone crossing. See the PDT4207 flight status page for this flight to view local times or setup timezone preferences in your user account.

Time Position Orientation Groundspeed Altitude Reporting Facility
EST Latitude Longitude Course Direction KTS MPH feet Rate Location/Type
Sat 09:36:28 PM 39.9000 -75.2333 323° Northwest 127 146 400  Level Philadelphia TRACON
Sat 09:36:52 PM 39.9000 -75.2500 270° West 130 150 1,000 1,341 Climbing Philadelphia TRACON
Sat 09:37:53 PM 39.9167 -75.3000 294° West 154 177 2,300 1,289 Climbing Philadelphia TRACON
Sat 09:38:53 PM 39.9500 -75.3333 323° Northwest 164 189 3,600 1,300 Climbing Philadelphia TRACON
Sat 09:39:00 PM 40.0193 -75.3693 323° Northwest  Level FlightAware Approximate
Sat 09:39:53 PM 40.0000 -75.3500 346° North 170 196 4,900  Level Philadelphia TRACON
Sat 09:40:00 PM 40.0699 -75.4183 339° North  Level FlightAware Approximate
Sat 09:40:58 PM 40.0333 -75.3833 323° Northwest 163 188 6,200  Level Philadelphia TRACON
Sat 09:41:00 PM 40.1170 -75.4670 323° Northwest  Level FlightAware Approximate
Sat 09:41:59 PM 40.0833 -75.4167 333° Northwest 170 196 7,400  Level Philadelphia TRACON
Sat 09:43:10 PM 40.1208 -75.4547 322° Northwest 162 186 8,900 1,173 Climbing New York Center
Sat 09:44:12 PM 40.1594 -75.4875 327° Northwest 162 186 10,000 1,122 Climbing New York Center
Sat 09:45:13 PM 40.1906 -75.5278 315° West 157 181 11,200 984 Climbing New York Center
Sat 09:46:14 PM 40.2203 -75.5733 311° West 165 190 12,000 934 Climbing New York Center
Sat 09:47:15 PM 40.2647 -75.6061 331° Northwest 168 193 13,100 934 Climbing New York Center
Sat 09:48:16 PM 40.3139 -75.6319 338° Northwest 179 206 13,900 443 Climbing New York Center
Sat 09:49:17 PM 40.3631 -75.6636 334° Northwest 205 236 14,000 49 Climbing New York Center
Sat 09:50:18 PM 40.4228 -75.6981 336° Northwest 219 252 14,000  Level New York Center
Sat 09:51:19 PM 40.4825 -75.7333 336° Northwest 225 259 14,000  Level New York Center
Sat 09:52:20 PM 40.5378 -75.7650 336° Northwest 225 259 14,000  Level New York Center
Sat 09:53:21 PM 40.5997 -75.7967 339° North 225 259 14,000  Level New York Center
Sat 09:54:22 PM 40.6539 -75.8347 332° Northwest 226 260 14,000  Level New York Center
Sat 09:55:23 PM 40.7136 -75.8725 334° Northwest 226 260 14,000  Level New York Center
Sat 09:56:24 PM 40.7736 -75.9086 335° Northwest 226 260 14,000  Level New York Center
Sat 09:57:25 PM 40.8283 -75.9483 331° Northwest 226 260 14,000 -49 Level New York Center
Sat 09:58:26 PM 40.8806 -75.9869 331° Northwest 225 259 13,900 50 Descending New York Center
Sat 09:59:26 PM 40.9406 -76.0183 338° Northwest 224 258 14,100 99 Climbing New York Center
Sat 10:00:27 PM 40.9947 -76.0525 335° Northwest 218 251 14,100  Level New York Center
Sat 10:01:28 PM 41.0500 -76.0939 331° Northwest 218 251 14,100  Level New York Center
Sat 10:02:29 PM 41.1108 -76.1253 339° North 222 255 14,100  Level New York Center
Sat 10:03:30 PM 41.1647 -76.1594 334° Northwest 222 255 14,100  Level New York Center
Sat 10:04:31 PM 41.2203 -76.2042 329° Northwest 222 255 14,100  Level New York Center
Sat 10:05:32 PM 41.2861 -76.2056 359° North 255 293 14,100  Level New York Center
Sat 10:06:32 PM 41.3603 -76.1886 10° North 256 295 14,100  Level New York Center
Sat 10:07:33 PM 41.4250 -76.1961 355° North 244 281 14,100  Level New York Center
Sat 10:08:34 PM 41.4967 -76.1986 359° North 244 281 14,100 -344 Level New York Center
Sat 10:09:35 PM 41.5736 -76.1892 North 266 306 13,400 -738 Descending New York Center
Sat 10:10:36 PM 41.6478 -76.1775 North 273 314 12,600 -1,033 Descending New York Center
Sat 10:11:37 PM 41.7294 -76.1681 North 278 320 11,300 -1,289 Descending New York Center
Sat 10:12:37 PM 41.8014 -76.1583 North 270 311 10,000 -1,240 Descending New York Center
Sat 10:13:38 PM 41.8753 -76.1569 North 258 297 8,800 -1,180 Descending New York Center
Sat 10:15:40 PM 42.0106 -76.1586 359° North 244 281 6,400 -1,311 Descending New York Center
Sat 10:16:41 PM 42.0800 -76.1253 20° North 256 295 4,800 -1,279 Descending New York Center
Sat 10:17:42 PM 42.1425 -76.0917 22° Northeast 250 288 3,800 -744 Descending New York Center
Sat 10:18:42 PM 42.1972 -76.0650 20° North 225 259 3,300 -545 Descending New York Center
Sat 10:19:43 PM 42.2417 -76.0478 16° North 189 217 2,700 -492 Descending New York Center
Sat 10:20:44 PM 42.2442 -76.0036 86° East 155 178 2,300 -246 Descending New York Center
Sat 10:21:45 PM 42.2081 -75.9872 161° South 152 175 2,200 -98 Descending New York Center

Login

Don't have an account? Register now (free) for customized features, flight alerts, and more!